You are not logged in, Click here to log in
Palma De Mallorca Airport / LEPA Palma De Mallorca
ICAO: LEPA Country: Palma De Mallorca
Latitude: 39.5517 Longitude: 2.73881
Total Arrivals: 2 Total Departures: 1
Latest Arrival: LX2150 (LSZH-LEPA)ALAN. LIU Latest Departure: FS16 (LEPA-EDDH)CHU. CHUHAO
Scenery:
METAR : LEPA 090730Z 26006KT 220V290 9999 FEW018 14/10 Q1020 NOSIG

Palma De Mallorca Airport

You are accessing this site from IP address 100.26.176.182. Virtual Airline. CMS by phpVMS.Website designed by Zumeweb and edited by Theo Bearman.
There is 0 User(s) Online: | and 4 Guest(s) Online.
All information on this site is for fight simulation purposes only. This site is for flight logging for pilots of Virtual Airline&模擬飛行論壇 FlySim only.